sensor_id;sensor_type;location;lat;lon;timestamp;temperature;humidity
15947;DHT22;8072;52.554;7.966;2022-09-06T00:02:13;21.40;99.90
15947;DHT22;8072;52.554;7.966;2022-09-06T00:04:39;21.40;99.90
15947;DHT22;8072;52.554;7.966;2022-09-06T00:07:04;21.40;99.90
15947;DHT22;8072;52.554;7.966;2022-09-06T00:09:30;21.30;99.90
15947;DHT22;8072;52.554;7.966;2022-09-06T00:11:56;21.30;99.90
15947;DHT22;8072;52.554;7.966;2022-09-06T00:14:22;21.30;99.90
15947;DHT22;8072;52.554;7.966;2022-09-06T00:16:47;21.30;99.90
15947;DHT22;8072;52.554;7.966;2022-09-06T00:19:13;21.30;99.90
15947;DHT22;8072;52.554;7.966;2022-09-06T00:21:39;21.30;99.90
15947;DHT22;8072;52.554;7.966;2022-09-06T00:24:05;21.20;99.90
15947;DHT22;8072;52.554;7.966;2022-09-06T00:26:31;21.20;99.90
15947;DHT22;8072;52.554;7.966;2022-09-06T00:28:57;21.20;99.90
15947;DHT22;8072;52.554;7.966;2022-09-06T00:31:24;21.20;99.90
15947;DHT22;8072;52.554;7.966;2022-09-06T00:33:50;21.20;99.90
15947;DHT22;8072;52.554;7.966;2022-09-06T00:36:16;21.20;99.90
15947;DHT22;8072;52.554;7.966;2022-09-06T00:38:43;21.10;99.90
15947;DHT22;8072;52.554;7.966;2022-09-06T00:41:12;21.10;99.90
15947;DHT22;8072;52.554;7.966;2022-09-06T00:43:39;21.10;99.90
15947;DHT22;8072;52.554;7.966;2022-09-06T00:46:07;21.10;99.90
15947;DHT22;8072;52.554;7.966;2022-09-06T00:48:34;21.00;99.90
15947;DHT22;8072;52.554;7.966;2022-09-06T00:51:04;21.00;99.90
15947;DHT22;8072;52.554;7.966;2022-09-06T00:53:31;21.00;99.90
15947;DHT22;8072;52.554;7.966;2022-09-06T00:55:58;21.00;99.90
15947;DHT22;8072;52.554;7.966;2022-09-06T00:58:24;21.00;99.90
15947;DHT22;8072;52.554;7.966;2022-09-06T01:00:51;21.00;99.90
15947;DHT22;8072;52.554;7.966;2022-09-06T01:03:17;21.00;99.90
15947;DHT22;8072;52.554;7.966;2022-09-06T01:14:39;20.90;99.90
15947;DHT22;8072;52.554;7.966;2022-09-06T01:19:54;20.90;99.90
15947;DHT22;8072;52.554;7.966;2022-09-06T01:30:42;20.80;99.90
15947;DHT22;8072;52.554;7.966;2022-09-06T01:33:23;20.80;99.90
15947;DHT22;8072;52.554;7.966;2022-09-06T01:36:06;20.70;99.90
15947;DHT22;8072;52.554;7.966;2022-09-06T01:38:33;20.70;99.90
15947;DHT22;8072;52.554;7.966;2022-09-06T01:40:59;20.70;99.90
15947;DHT22;8072;52.554;7.966;2022-09-06T01:43:34;20.70;99.90
15947;DHT22;8072;52.554;7.966;2022-09-06T01:58:20;20.50;99.90
15947;DHT22;8072;52.554;7.966;2022-09-06T02:01:04;20.50;99.90
15947;DHT22;8072;52.554;7.966;2022-09-06T02:03:44;20.50;99.90
15947;DHT22;8072;52.554;7.966;2022-09-06T02:06:19;20.50;99.90
15947;DHT22;8072;52.554;7.966;2022-09-06T02:08:50;20.40;99.90
15947;DHT22;8072;52.554;7.966;2022-09-06T02:11:18;20.40;99.90
15947;DHT22;8072;52.554;7.966;2022-09-06T02:13:48;20.40;99.90
15947;DHT22;8072;52.554;7.966;2022-09-06T02:16:18;20.40;99.90
15947;DHT22;8072;52.554;7.966;2022-09-06T02:21:28;20.40;99.90
15947;DHT22;8072;52.554;7.966;2022-09-06T02:23:58;20.40;99.90
15947;DHT22;8072;52.554;7.966;2022-09-06T02:26:28;20.40;99.90
15947;DHT22;8072;52.554;7.966;2022-09-06T02:28:55;20.40;99.90
15947;DHT22;8072;52.554;7.966;2022-09-06T02:31:30;20.30;99.90
15947;DHT22;8072;52.554;7.966;2022-09-06T02:33:57;20.30;99.90
15947;DHT22;8072;52.554;7.966;2022-09-06T02:36:24;20.30;99.90
15947;DHT22;8072;52.554;7.966;2022-09-06T02:38:49;20.20;99.90
15947;DHT22;8072;52.554;7.966;2022-09-06T02:41:18;20.20;99.90
15947;DHT22;8072;52.554;7.966;2022-09-06T02:43:47;20.20;99.90
15947;DHT22;8072;52.554;7.966;2022-09-06T02:46:13;20.20;99.90
15947;DHT22;8072;52.554;7.966;2022-09-06T02:48:39;20.20;99.90
15947;DHT22;8072;52.554;7.966;2022-09-06T02:51:06;20.20;99.90
15947;DHT22;8072;52.554;7.966;2022-09-06T02:53:32;20.20;99.90
15947;DHT22;8072;52.554;7.966;2022-09-06T02:55:58;20.20;99.90
15947;DHT22;8072;52.554;7.966;2022-09-06T02:58:25;20.20;99.90
15947;DHT22;8072;52.554;7.966;2022-09-06T03:00:51;20.20;99.90
15947;DHT22;8072;52.554;7.966;2022-09-06T03:03:21;20.20;99.90
15947;DHT22;8072;52.554;7.966;2022-09-06T03:05:48;20.20;99.90
15947;DHT22;8072;52.554;7.966;2022-09-06T03:08:18;20.10;99.90
15947;DHT22;8072;52.554;7.966;2022-09-06T03:10:54;20.10;99.90
15947;DHT22;8072;52.554;7.966;2022-09-06T03:13:34;20.20;99.90
15947;DHT22;8072;52.554;7.966;2022-09-06T03:16:00;20.20;99.90
15947;DHT22;8072;52.554;7.966;2022-09-06T03:18:28;20.10;99.90
15947;DHT22;8072;52.554;7.966;2022-09-06T03:20:54;20.20;99.90
15947;DHT22;8072;52.554;7.966;2022-09-06T03:23:24;20.10;99.90
15947;DHT22;8072;52.554;7.966;2022-09-06T03:25:51;20.20;99.90
15947;DHT22;8072;52.554;7.966;2022-09-06T03:28:17;20.20;99.90
15947;DHT22;8072;52.554;7.966;2022-09-06T03:30:45;20.10;99.90
15947;DHT22;8072;52.554;7.966;2022-09-06T03:33:11;20.10;99.90
15947;DHT22;8072;52.554;7.966;2022-09-06T03:35:37;20.10;99.90
15947;DHT22;8072;52.554;7.966;2022-09-06T03:38:05;20.10;99.90
15947;DHT22;8072;52.554;7.966;2022-09-06T03:40:30;20.10;99.90
15947;DHT22;8072;52.554;7.966;2022-09-06T03:42:56;20.10;99.90
15947;DHT22;8072;52.554;7.966;2022-09-06T03:45:22;20.10;99.90
15947;DHT22;8072;52.554;7.966;2022-09-06T03:47:48;20.10;99.90
15947;DHT22;8072;52.554;7.966;2022-09-06T03:50:13;20.00;99.90
15947;DHT22;8072;52.554;7.966;2022-09-06T03:52:39;20.10;99.90
15947;DHT22;8072;52.554;7.966;2022-09-06T03:55:05;20.10;99.90
15947;DHT22;8072;52.554;7.966;2022-09-06T03:57:31;20.10;99.90
15947;DHT22;8072;52.554;7.966;2022-09-06T03:59:57;20.00;99.90
15947;DHT22;8072;52.554;7.966;2022-09-06T04:02:23;20.00;99.90
15947;DHT22;8072;52.554;7.966;2022-09-06T04:04:49;20.00;99.90
15947;DHT22;8072;52.554;7.966;2022-09-06T04:07:16;20.00;99.90
15947;DHT22;8072;52.554;7.966;2022-09-06T04:09:42;20.00;99.90
15947;DHT22;8072;52.554;7.966;2022-09-06T04:12:07;20.00;99.90
15947;DHT22;8072;52.554;7.966;2022-09-06T04:14:33;19.90;99.90
15947;DHT22;8072;52.554;7.966;2022-09-06T04:16:59;19.90;99.90
15947;DHT22;8072;52.554;7.966;2022-09-06T04:19:24;19.90;99.90
15947;DHT22;8072;52.554;7.966;2022-09-06T04:21:50;19.90;99.90
15947;DHT22;8072;52.554;7.966;2022-09-06T04:24:16;19.90;99.90
15947;DHT22;8072;52.554;7.966;2022-09-06T04:26:42;19.80;99.90
15947;DHT22;8072;52.554;7.966;2022-09-06T04:29:07;19.90;99.90
15947;DHT22;8072;52.554;7.966;2022-09-06T04:31:33;19.80;99.90
15947;DHT22;8072;52.554;7.966;2022-09-06T04:33:59;19.90;99.90
15947;DHT22;8072;52.554;7.966;2022-09-06T04:36:25;19.80;99.90
15947;DHT22;8072;52.554;7.966;2022-09-06T04:38:51;19.80;99.90
15947;DHT22;8072;52.554;7.966;2022-09-06T04:41:16;19.80;99.90
15947;DHT22;8072;52.554;7.966;2022-09-06T04:43:43;19.80;99.90
15947;DHT22;8072;52.554;7.966;2022-09-06T04:46:24;19.80;99.90
15947;DHT22;8072;52.554;7.966;2022-09-06T04:48:53;19.70;99.90
15947;DHT22;8072;52.554;7.966;2022-09-06T04:51:19;19.70;99.90
15947;DHT22;8072;52.554;7.966;2022-09-06T04:53:46;19.70;99.90
15947;DHT22;8072;52.554;7.966;2022-09-06T04:56:14;19.70;99.90
15947;DHT22;8072;52.554;7.966;2022-09-06T04:58:42;19.70;99.90
15947;DHT22;8072;52.554;7.966;2022-09-06T05:01:07;19.70;99.90
15947;DHT22;8072;52.554;7.966;2022-09-06T05:03:33;19.60;99.90
15947;DHT22;8072;52.554;7.966;2022-09-06T05:06:09;19.60;99.90
15947;DHT22;8072;52.554;7.966;2022-09-06T05:08:40;19.60;99.90
15947;DHT22;8072;52.554;7.966;2022-09-06T05:11:07;19.60;99.90
15947;DHT22;8072;52.554;7.966;2022-09-06T05:13:33;19.60;99.90
15947;DHT22;8072;52.554;7.966;2022-09-06T05:16:05;19.60;99.90
15947;DHT22;8072;52.554;7.966;2022-09-06T05:18:32;19.60;99.90
15947;DHT22;8072;52.554;7.966;2022-09-06T05:20:59;19.60;99.90
15947;DHT22;8072;52.554;7.966;2022-09-06T05:23:25;19.60;99.90
15947;DHT22;8072;52.554;7.966;2022-09-06T05:25:51;19.60;99.90
15947;DHT22;8072;52.554;7.966;2022-09-06T05:28:17;19.60;99.90
15947;DHT22;8072;52.554;7.966;2022-09-06T05:30:43;19.60;99.90
15947;DHT22;8072;52.554;7.966;2022-09-06T05:33:11;19.60;99.90
15947;DHT22;8072;52.554;7.966;2022-09-06T05:35:37;19.60;99.90
15947;DHT22;8072;52.554;7.966;2022-09-06T05:38:04;19.60;99.90
15947;DHT22;8072;52.554;7.966;2022-09-06T05:40:30;19.60;99.90
15947;DHT22;8072;52.554;7.966;2022-09-06T05:42:56;19.60;99.90
15947;DHT22;8072;52.554;7.966;2022-09-06T05:45:22;19.60;99.90
15947;DHT22;8072;52.554;7.966;2022-09-06T05:47:48;19.60;99.90
15947;DHT22;8072;52.554;7.966;2022-09-06T05:50:13;19.50;99.90
15947;DHT22;8072;52.554;7.966;2022-09-06T05:52:39;19.50;99.90
15947;DHT22;8072;52.554;7.966;2022-09-06T05:55:06;19.50;99.90
15947;DHT22;8072;52.554;7.966;2022-09-06T05:57:32;19.50;99.90
15947;DHT22;8072;52.554;7.966;2022-09-06T05:59:58;19.50;99.90
15947;DHT22;8072;52.554;7.966;2022-09-06T06:02:24;19.40;99.90
15947;DHT22;8072;52.554;7.966;2022-09-06T06:04:50;19.40;99.90
15947;DHT22;8072;52.554;7.966;2022-09-06T06:07:19;19.40;99.90
15947;DHT22;8072;52.554;7.966;2022-09-06T06:09:45;19.40;99.90
15947;DHT22;8072;52.554;7.966;2022-09-06T06:12:10;19.40;99.90
15947;DHT22;8072;52.554;7.966;2022-09-06T06:14:36;19.30;99.90
15947;DHT22;8072;52.554;7.966;2022-09-06T06:17:02;19.30;99.90
15947;DHT22;8072;52.554;7.966;2022-09-06T06:19:28;19.30;99.90
15947;DHT22;8072;52.554;7.966;2022-09-06T06:21:54;19.30;99.90
15947;DHT22;8072;52.554;7.966;2022-09-06T06:24:20;19.20;99.90
15947;DHT22;8072;52.554;7.966;2022-09-06T06:26:47;19.30;99.90
15947;DHT22;8072;52.554;7.966;2022-09-06T06:29:13;19.20;99.90
15947;DHT22;8072;52.554;7.966;2022-09-06T06:31:39;19.20;99.90
15947;DHT22;8072;52.554;7.966;2022-09-06T06:34:05;19.20;99.90
15947;DHT22;8072;52.554;7.966;2022-09-06T06:36:33;19.20;99.90
15947;DHT22;8072;52.554;7.966;2022-09-06T06:39:00;19.20;99.90
15947;DHT22;8072;52.554;7.966;2022-09-06T06:41:28;19.30;99.90
15947;DHT22;8072;52.554;7.966;2022-09-06T06:43:55;19.20;99.90
15947;DHT22;8072;52.554;7.966;2022-09-06T06:46:24;19.30;99.90
15947;DHT22;8072;52.554;7.966;2022-09-06T06:48:50;19.30;99.90
15947;DHT22;8072;52.554;7.966;2022-09-06T06:51:18;19.30;99.90
15947;DHT22;8072;52.554;7.966;2022-09-06T06:53:45;19.40;99.90
15947;DHT22;8072;52.554;7.966;2022-09-06T06:58:47;19.40;99.90
15947;DHT22;8072;52.554;7.966;2022-09-06T07:01:14;19.40;99.90
15947;DHT22;8072;52.554;7.966;2022-09-06T07:03:40;19.50;99.90
15947;DHT22;8072;52.554;7.966;2022-09-06T07:06:07;19.60;99.90
15947;DHT22;8072;52.554;7.966;2022-09-06T07:08:34;19.60;99.90
15947;DHT22;8072;52.554;7.966;2022-09-06T07:11:01;19.60;99.90
15947;DHT22;8072;52.554;7.966;2022-09-06T07:13:27;19.70;99.90
15947;DHT22;8072;52.554;7.966;2022-09-06T07:16:16;19.70;99.90
15947;DHT22;8072;52.554;7.966;2022-09-06T07:18:42;19.70;99.90
15947;DHT22;8072;52.554;7.966;2022-09-06T07:21:12;19.80;99.90
15947;DHT22;8072;52.554;7.966;2022-09-06T07:23:38;19.80;99.90
15947;DHT22;8072;52.554;7.966;2022-09-06T07:26:04;19.80;99.90
15947;DHT22;8072;52.554;7.966;2022-09-06T07:28:30;19.80;99.90
15947;DHT22;8072;52.554;7.966;2022-09-06T07:30:56;19.80;99.90
15947;DHT22;8072;52.554;7.966;2022-09-06T07:33:22;19.80;99.90
15947;DHT22;8072;52.554;7.966;2022-09-06T07:35:59;19.70;99.90
15947;DHT22;8072;52.554;7.966;2022-09-06T07:38:27;19.70;99.90
15947;DHT22;8072;52.554;7.966;2022-09-06T07:40:55;19.70;99.90
15947;DHT22;8072;52.554;7.966;2022-09-06T07:43:21;19.80;99.90
15947;DHT22;8072;52.554;7.966;2022-09-06T07:45:48;19.80;99.90
15947;DHT22;8072;52.554;7.966;2022-09-06T07:48:14;19.80;99.90
15947;DHT22;8072;52.554;7.966;2022-09-06T07:50:40;19.90;99.90
15947;DHT22;8072;52.554;7.966;2022-09-06T07:53:06;20.00;99.90
15947;DHT22;8072;52.554;7.966;2022-09-06T07:55:32;20.00;99.90
15947;DHT22;8072;52.554;7.966;2022-09-06T07:57:58;20.00;99.90
15947;DHT22;8072;52.554;7.966;2022-09-06T08:00:24;20.10;99.90
15947;DHT22;8072;52.554;7.966;2022-09-06T08:02:49;20.20;99.90
15947;DHT22;8072;52.554;7.966;2022-09-06T08:05:15;20.30;99.90
15947;DHT22;8072;52.554;7.966;2022-09-06T08:07:41;20.30;99.90
15947;DHT22;8072;52.554;7.966;2022-09-06T08:10:08;20.40;99.90
15947;DHT22;8072;52.554;7.966;2022-09-06T08:12:34;20.50;99.90
15947;DHT22;8072;52.554;7.966;2022-09-06T08:15:00;20.60;99.90
15947;DHT22;8072;52.554;7.966;2022-09-06T08:17:25;20.70;99.90
15947;DHT22;8072;52.554;7.966;2022-09-06T08:19:52;20.80;99.90
15947;DHT22;8072;52.554;7.966;2022-09-06T08:22:18;20.90;99.90
15947;DHT22;8072;52.554;7.966;2022-09-06T08:24:44;21.10;99.90
15947;DHT22;8072;52.554;7.966;2022-09-06T08:27:09;21.20;99.90
15947;DHT22;8072;52.554;7.966;2022-09-06T08:29:36;21.30;99.90
15947;DHT22;8072;52.554;7.966;2022-09-06T08:32:02;21.30;99.90
15947;DHT22;8072;52.554;7.966;2022-09-06T08:34:28;21.40;99.90
15947;DHT22;8072;52.554;7.966;2022-09-06T08:36:53;21.40;99.90
15947;DHT22;8072;52.554;7.966;2022-09-06T08:39:19;21.50;99.90
15947;DHT22;8072;52.554;7.966;2022-09-06T08:44:17;21.60;99.90
15947;DHT22;8072;52.554;7.966;2022-09-06T08:46:50;21.70;99.90
15947;DHT22;8072;52.554;7.966;2022-09-06T08:49:18;21.70;99.90
15947;DHT22;8072;52.554;7.966;2022-09-06T08:52:01;21.80;99.90
15947;DHT22;8072;52.554;7.966;2022-09-06T08:59:55;21.90;99.90
15947;DHT22;8072;52.554;7.966;2022-09-06T09:02:23;22.10;99.90
15947;DHT22;8072;52.554;7.966;2022-09-06T09:04:50;22.20;99.90
15947;DHT22;8072;52.554;7.966;2022-09-06T09:07:21;22.20;99.90
15947;DHT22;8072;52.554;7.966;2022-09-06T09:09:49;22.30;99.90
15947;DHT22;8072;52.554;7.966;2022-09-06T09:12:21;22.40;99.90
15947;DHT22;8072;52.554;7.966;2022-09-06T09:14:54;22.60;99.90
15947;DHT22;8072;52.554;7.966;2022-09-06T09:17:28;22.60;99.90
15947;DHT22;8072;52.554;7.966;2022-09-06T09:19:54;22.70;99.90
15947;DHT22;8072;52.554;7.966;2022-09-06T09:22:22;22.80;99.90
15947;DHT22;8072;52.554;7.966;2022-09-06T09:24:49;22.80;99.90
15947;DHT22;8072;52.554;7.966;2022-09-06T09:27:20;22.90;99.90
15947;DHT22;8072;52.554;7.966;2022-09-06T09:32:39;23.00;99.90
15947;DHT22;8072;52.554;7.966;2022-09-06T09:35:22;23.00;99.90
15947;DHT22;8072;52.554;7.966;2022-09-06T09:38:07;23.00;99.90
15947;DHT22;8072;52.554;7.966;2022-09-06T09:40:38;23.20;99.90
15947;DHT22;8072;52.554;7.966;2022-09-06T09:43:13;23.30;99.90
15947;DHT22;8072;52.554;7.966;2022-09-06T09:45:39;23.50;99.90
15947;DHT22;8072;52.554;7.966;2022-09-06T09:48:25;23.60;99.90
15947;DHT22;8072;52.554;7.966;2022-09-06T09:50:54;23.70;99.90
15947;DHT22;8072;52.554;7.966;2022-09-06T09:53:22;23.70;99.90
15947;DHT22;8072;52.554;7.966;2022-09-06T09:55:54;23.80;99.90
15947;DHT22;8072;52.554;7.966;2022-09-06T09:58:33;23.80;99.90
15947;DHT22;8072;52.554;7.966;2022-09-06T10:01:17;23.90;99.90
15947;DHT22;8072;52.554;7.966;2022-09-06T10:03:44;24.00;99.90
15947;DHT22;8072;52.554;7.966;2022-09-06T10:06:12;24.10;99.90
15947;DHT22;8072;52.554;7.966;2022-09-06T10:08:41;24.20;99.90
15947;DHT22;8072;52.554;7.966;2022-09-06T10:11:12;24.30;99.90
15947;DHT22;8072;52.554;7.966;2022-09-06T10:13:38;24.40;99.90
15947;DHT22;8072;52.554;7.966;2022-09-06T10:16:06;24.40;99.90
15947;DHT22;8072;52.554;7.966;2022-09-06T10:18:50;24.50;99.90
15947;DHT22;8072;52.554;7.966;2022-09-06T10:21:17;24.50;99.90
15947;DHT22;8072;52.554;7.966;2022-09-06T10:26:38;24.70;99.90
15947;DHT22;8072;52.554;7.966;2022-09-06T10:29:08;24.80;99.90
15947;DHT22;8072;52.554;7.966;2022-09-06T10:40:08;25.30;99.90
15947;DHT22;8072;52.554;7.966;2022-09-06T10:53:33;25.80;99.90
15947;DHT22;8072;52.554;7.966;2022-09-06T10:56:08;26.00;99.90
15947;DHT22;8072;52.554;7.966;2022-09-06T10:58:52;26.20;99.90
15947;DHT22;8072;52.554;7.966;2022-09-06T11:01:27;26.30;99.90
15947;DHT22;8072;52.554;7.966;2022-09-06T11:03:57;26.50;99.90
15947;DHT22;8072;52.554;7.966;2022-09-06T11:06:31;26.60;99.90
15947;DHT22;8072;52.554;7.966;2022-09-06T11:09:28;26.70;99.90
15947;DHT22;8072;52.554;7.966;2022-09-06T11:12:05;26.90;99.90
15947;DHT22;8072;52.554;7.966;2022-09-06T11:14:33;27.10;99.90
15947;DHT22;8072;52.554;7.966;2022-09-06T11:17:07;27.30;99.90
15947;DHT22;8072;52.554;7.966;2022-09-06T11:19:49;27.30;99.90
15947;DHT22;8072;52.554;7.966;2022-09-06T11:29:56;27.70;99.90
15947;DHT22;8072;52.554;7.966;2022-09-06T11:34:54;28.00;99.90
15947;DHT22;8072;52.554;7.966;2022-09-06T11:37:36;28.10;99.90
15947;DHT22;8072;52.554;7.966;2022-09-06T11:40:16;28.30;99.90
15947;DHT22;8072;52.554;7.966;2022-09-06T11:47:42;28.70;99.90
15947;DHT22;8072;52.554;7.966;2022-09-06T11:53:18;29.00;99.90
15947;DHT22;8072;52.554;7.966;2022-09-06T11:56:09;29.10;99.90
15947;DHT22;8072;52.554;7.966;2022-09-06T12:06:22;29.60;99.90
15947;DHT22;8072;52.554;7.966;2022-09-06T12:08:50;29.70;99.90
15947;DHT22;8072;52.554;7.966;2022-09-06T12:16:22;30.00;99.90
15947;DHT22;8072;52.554;7.966;2022-09-06T12:21:34;30.00;99.90
15947;DHT22;8072;52.554;7.966;2022-09-06T12:24:01;30.00;99.90
15947;DHT22;8072;52.554;7.966;2022-09-06T12:29:12;30.30;99.90
15947;DHT22;8072;52.554;7.966;2022-09-06T12:31:58;30.50;99.90
15947;DHT22;8072;52.554;7.966;2022-09-06T12:34:34;30.70;99.90
15947;DHT22;8072;52.554;7.966;2022-09-06T12:37:06;30.80;99.90
15947;DHT22;8072;52.554;7.966;2022-09-06T12:39:33;30.80;99.90
15947;DHT22;8072;52.554;7.966;2022-09-06T12:42:10;30.90;99.90
15947;DHT22;8072;52.554;7.966;2022-09-06T12:44:46;31.00;99.90
15947;DHT22;8072;52.554;7.966;2022-09-06T12:47:34;30.90;99.90
15947;DHT22;8072;52.554;7.966;2022-09-06T12:50:13;30.90;99.90
15947;DHT22;8072;52.554;7.966;2022-09-06T12:52:59;30.90;99.90
15947;DHT22;8072;52.554;7.966;2022-09-06T12:55:32;30.90;99.90
15947;DHT22;8072;52.554;7.966;2022-09-06T12:58:02;31.10;99.90
15947;DHT22;8072;52.554;7.966;2022-09-06T13:00:47;31.00;99.90
15947;DHT22;8072;52.554;7.966;2022-09-06T13:03:45;31.00;99.90
15947;DHT22;8072;52.554;7.966;2022-09-06T13:06:20;31.20;99.90
15947;DHT22;8072;52.554;7.966;2022-09-06T13:08:52;31.20;99.90
15947;DHT22;8072;52.554;7.966;2022-09-06T13:11:26;31.20;99.90
15947;DHT22;8072;52.554;7.966;2022-09-06T13:13:54;31.30;99.90
15947;DHT22;8072;52.554;7.966;2022-09-06T13:16:29;31.40;99.90
15947;DHT22;8072;52.554;7.966;2022-09-06T13:19:15;31.30;99.90
15947;DHT22;8072;52.554;7.966;2022-09-06T13:21:42;31.00;99.90
15947;DHT22;8072;52.554;7.966;2022-09-06T13:24:36;30.90;99.90
15947;DHT22;8072;52.554;7.966;2022-09-06T13:27:23;31.00;99.90
15947;DHT22;8072;52.554;7.966;2022-09-06T13:29:54;31.30;99.90
15947;DHT22;8072;52.554;7.966;2022-09-06T13:32:21;31.40;99.90
15947;DHT22;8072;52.554;7.966;2022-09-06T13:34:50;31.40;99.90
15947;DHT22;8072;52.554;7.966;2022-09-06T13:37:24;31.40;99.90
15947;DHT22;8072;52.554;7.966;2022-09-06T13:39:51;31.40;99.90
15947;DHT22;8072;52.554;7.966;2022-09-06T13:42:34;31.40;99.90
15947;DHT22;8072;52.554;7.966;2022-09-06T13:45:26;31.50;99.90
15947;DHT22;8072;52.554;7.966;2022-09-06T13:47:52;31.40;99.90
15947;DHT22;8072;52.554;7.966;2022-09-06T13:50:19;31.50;99.90
15947;DHT22;8072;52.554;7.966;2022-09-06T13:52:45;31.70;99.90
15947;DHT22;8072;52.554;7.966;2022-09-06T13:55:15;31.60;99.90
15947;DHT22;8072;52.554;7.966;2022-09-06T13:57:42;31.50;99.90
15947;DHT22;8072;52.554;7.966;2022-09-06T14:00:09;31.40;99.90
15947;DHT22;8072;52.554;7.966;2022-09-06T14:02:39;31.40;99.90
15947;DHT22;8072;52.554;7.966;2022-09-06T14:05:06;31.30;99.90
15947;DHT22;8072;52.554;7.966;2022-09-06T14:07:32;31.20;99.90
15947;DHT22;8072;52.554;7.966;2022-09-06T14:09:58;31.30;99.90
15947;DHT22;8072;52.554;7.966;2022-09-06T14:12:25;31.30;99.90
15947;DHT22;8072;52.554;7.966;2022-09-06T14:14:52;31.30;99.90
15947;DHT22;8072;52.554;7.966;2022-09-06T14:17:18;31.30;99.90
15947;DHT22;8072;52.554;7.966;2022-09-06T14:19:44;31.30;99.90
15947;DHT22;8072;52.554;7.966;2022-09-06T14:22:11;31.20;99.90
15947;DHT22;8072;52.554;7.966;2022-09-06T14:24:36;31.10;99.90
15947;DHT22;8072;52.554;7.966;2022-09-06T14:27:03;31.20;99.90
15947;DHT22;8072;52.554;7.966;2022-09-06T14:29:30;31.30;99.90
15947;DHT22;8072;52.554;7.966;2022-09-06T14:31:57;31.40;99.90
15947;DHT22;8072;52.554;7.966;2022-09-06T14:34:22;31.40;99.90
15947;DHT22;8072;52.554;7.966;2022-09-06T14:36:50;31.30;99.90
15947;DHT22;8072;52.554;7.966;2022-09-06T14:39:17;31.20;99.90
15947;DHT22;8072;52.554;7.966;2022-09-06T14:41:42;31.00;99.90
15947;DHT22;8072;52.554;7.966;2022-09-06T14:44:08;30.90;99.90
15947;DHT22;8072;52.554;7.966;2022-09-06T14:46:35;31.00;99.90
15947;DHT22;8072;52.554;7.966;2022-09-06T14:49:06;31.00;99.90
15947;DHT22;8072;52.554;7.966;2022-09-06T14:51:33;30.90;99.90
15947;DHT22;8072;52.554;7.966;2022-09-06T14:54:05;30.80;99.90
15947;DHT22;8072;52.554;7.966;2022-09-06T14:56:31;30.60;99.90
15947;DHT22;8072;52.554;7.966;2022-09-06T14:58:57;30.50;99.90
15947;DHT22;8072;52.554;7.966;2022-09-06T15:01:29;30.30;99.90
15947;DHT22;8072;52.554;7.966;2022-09-06T15:03:57;30.40;99.90
15947;DHT22;8072;52.554;7.966;2022-09-06T15:06:25;30.40;99.90
15947;DHT22;8072;52.554;7.966;2022-09-06T15:08:52;30.50;99.90
15947;DHT22;8072;52.554;7.966;2022-09-06T15:11:34;30.50;99.90
15947;DHT22;8072;52.554;7.966;2022-09-06T15:14:01;30.50;99.90
15947;DHT22;8072;52.554;7.966;2022-09-06T15:16:29;30.50;99.90
15947;DHT22;8072;52.554;7.966;2022-09-06T15:18:55;30.50;99.90
15947;DHT22;8072;52.554;7.966;2022-09-06T15:21:22;30.50;99.90
15947;DHT22;8072;52.554;7.966;2022-09-06T15:23:49;30.50;99.90
15947;DHT22;8072;52.554;7.966;2022-09-06T15:26:16;30.50;99.90
15947;DHT22;8072;52.554;7.966;2022-09-06T15:28:43;30.50;99.90
15947;DHT22;8072;52.554;7.966;2022-09-06T15:31:12;30.30;99.90
15947;DHT22;8072;52.554;7.966;2022-09-06T15:33:38;30.10;99.90
15947;DHT22;8072;52.554;7.966;2022-09-06T15:36:06;29.90;99.90
15947;DHT22;8072;52.554;7.966;2022-09-06T15:38:51;29.90;99.90
15947;DHT22;8072;52.554;7.966;2022-09-06T15:41:21;29.80;99.90
15947;DHT22;8072;52.554;7.966;2022-09-06T15:43:50;29.60;99.90
15947;DHT22;8072;52.554;7.966;2022-09-06T15:46:20;29.40;99.90
15947;DHT22;8072;52.554;7.966;2022-09-06T15:48:57;29.20;99.90
15947;DHT22;8072;52.554;7.966;2022-09-06T15:51:22;29.20;99.90
15947;DHT22;8072;52.554;7.966;2022-09-06T15:53:48;29.10;99.90
15947;DHT22;8072;52.554;7.966;2022-09-06T15:56:16;29.10;99.90
15947;DHT22;8072;52.554;7.966;2022-09-06T15:58:42;29.00;99.90
15947;DHT22;8072;52.554;7.966;2022-09-06T16:01:23;28.90;99.90
15947;DHT22;8072;52.554;7.966;2022-09-06T16:03:51;28.80;99.90
15947;DHT22;8072;52.554;7.966;2022-09-06T16:06:20;28.70;99.90
15947;DHT22;8072;52.554;7.966;2022-09-06T16:08:47;28.70;99.90
15947;DHT22;8072;52.554;7.966;2022-09-06T16:11:14;28.60;99.90
15947;DHT22;8072;52.554;7.966;2022-09-06T16:13:42;28.50;99.90
15947;DHT22;8072;52.554;7.966;2022-09-06T16:16:11;28.40;99.90
15947;DHT22;8072;52.554;7.966;2022-09-06T16:18:39;28.40;99.90
15947;DHT22;8072;52.554;7.966;2022-09-06T16:21:10;28.40;99.90
15947;DHT22;8072;52.554;7.966;2022-09-06T16:23:37;28.30;99.90
15947;DHT22;8072;52.554;7.966;2022-09-06T16:26:05;28.20;99.90
15947;DHT22;8072;52.554;7.966;2022-09-06T16:28:34;28.10;99.90
15947;DHT22;8072;52.554;7.966;2022-09-06T16:31:05;28.10;99.90
15947;DHT22;8072;52.554;7.966;2022-09-06T16:33:33;28.00;99.90
15947;DHT22;8072;52.554;7.966;2022-09-06T16:36:00;28.00;99.90
15947;DHT22;8072;52.554;7.966;2022-09-06T16:38:32;27.90;99.90
15947;DHT22;8072;52.554;7.966;2022-09-06T16:41:00;27.90;99.90
15947;DHT22;8072;52.554;7.966;2022-09-06T16:43:32;27.80;99.90
15947;DHT22;8072;52.554;7.966;2022-09-06T16:45:59;27.70;99.90
15947;DHT22;8072;52.554;7.966;2022-09-06T16:48:26;27.60;99.90
15947;DHT22;8072;52.554;7.966;2022-09-06T16:50:52;27.50;99.90
15947;DHT22;8072;52.554;7.966;2022-09-06T16:53:19;27.50;99.90
15947;DHT22;8072;52.554;7.966;2022-09-06T16:55:45;27.40;99.90
15947;DHT22;8072;52.554;7.966;2022-09-06T16:58:12;27.40;99.90
15947;DHT22;8072;52.554;7.966;2022-09-06T17:00:41;27.30;99.90
15947;DHT22;8072;52.554;7.966;2022-09-06T17:03:07;27.20;99.90
15947;DHT22;8072;52.554;7.966;2022-09-06T17:05:34;27.10;99.90
15947;DHT22;8072;52.554;7.966;2022-09-06T17:08:00;27.00;99.90
15947;DHT22;8072;52.554;7.966;2022-09-06T17:10:26;26.80;99.90
15947;DHT22;8072;52.554;7.966;2022-09-06T17:12:52;26.60;99.90
15947;DHT22;8072;52.554;7.966;2022-09-06T17:15:18;26.60;99.90
15947;DHT22;8072;52.554;7.966;2022-09-06T17:17:45;26.50;99.90
15947;DHT22;8072;52.554;7.966;2022-09-06T17:20:12;26.50;99.90
15947;DHT22;8072;52.554;7.966;2022-09-06T17:22:40;26.50;99.90
15947;DHT22;8072;52.554;7.966;2022-09-06T17:25:06;26.40;99.90
15947;DHT22;8072;52.554;7.966;2022-09-06T17:27:32;26.40;99.90
15947;DHT22;8072;52.554;7.966;2022-09-06T17:29:59;26.40;99.90
15947;DHT22;8072;52.554;7.966;2022-09-06T17:32:25;26.30;99.90
15947;DHT22;8072;52.554;7.966;2022-09-06T17:34:51;26.20;99.90
15947;DHT22;8072;52.554;7.966;2022-09-06T17:37:18;26.20;99.90
15947;DHT22;8072;52.554;7.966;2022-09-06T17:39:44;26.10;99.90
15947;DHT22;8072;52.554;7.966;2022-09-06T17:42:09;26.00;99.90
15947;DHT22;8072;52.554;7.966;2022-09-06T17:44:36;26.00;99.90